Time;durP1;ratioP1;P1;durP2;ratioP2;P2;SDS_P1;SDS_P2;PMS_P1;PMS_P2;Temp;Humidity;BMP_temperature;BMP_pressure;BME280_temperature;BME280_humidity;BME280_pressure;Samples;Min_cycle;Max_cycle;Signal;HPM_P1;HPM_P2
2023/08/16 00:01:07;;;;;;;6.27;5.20;;;;;;;19.80;100.00;96688.66;4972379;28;101998;-71
2023/08/16 00:03:34;;;;;;;5.90;5.40;;;;;;;19.76;100.00;96683.06;4989285;28;105285;-73
2023/08/16 00:06:09;;;;;;;5.57;5.10;;;;;;;19.70;100.00;96676.19;4971872;28;105444;-73
2023/08/16 00:08:36;;;;;;;6.23;5.63;;;;;;;19.60;100.00;96680.97;4972633;28;102282;-72
2023/08/16 00:11:03;;;;;;;6.27;5.70;;;;;;;19.64;100.00;96680.09;4971965;28;104930;-72
2023/08/16 00:13:29;;;;;;;7.00;6.40;;;;;;;19.59;100.00;96677.47;4992006;28;105788;-72
2023/08/16 00:15:58;;;;;;;5.87;5.47;;;;;;;19.65;100.00;96691.66;4990645;28;102611;-72
2023/08/16 00:18:25;;;;;;;6.63;6.13;;;;;;;19.60;100.00;96679.06;4988052;28;104954;-72
2023/08/16 00:20:52;;;;;;;6.83;6.33;;;;;;;19.45;100.00;96681.28;4972214;28;101940;-72
2023/08/16 00:23:19;;;;;;;6.10;5.60;;;;;;;19.63;100.00;96683.84;4988933;28;105217;-72
2023/08/16 00:25:46;;;;;;;6.10;5.50;;;;;;;19.72;100.00;96676.66;4971228;28;104225;-72
2023/08/16 00:28:14;;;;;;;6.80;6.20;;;;;;;19.80;100.00;96680.56;4972358;28;102161;-72
2023/08/16 00:30:41;;;;;;;6.60;6.00;;;;;;;19.92;100.00;96678.97;4972314;28;105251;-72
2023/08/16 00:33:09;;;;;;;6.73;6.30;;;;;;;19.81;100.00;96672.19;4971486;28;105473;-72
2023/08/16 00:35:36;;;;;;;6.80;6.23;;;;;;;19.82;100.00;96667.56;4975720;28;101905;-70
2023/08/16 00:38:03;;;;;;;6.53;5.90;;;;;;;19.93;100.00;96667.06;4971398;28;105809;-72
2023/08/16 00:40:30;;;;;;;5.90;5.33;;;;;;;19.86;100.00;96660.47;4972320;28;102146;-72
2023/08/16 00:42:57;;;;;;;7.27;5.77;;;;;;;19.85;100.00;96648.88;4971821;28;105169;-72
2023/08/16 00:45:25;;;;;;;6.80;6.20;;;;;;;19.80;100.00;96642.78;4987980;28;105252;-72
2023/08/16 00:47:52;;;;;;;6.40;5.80;;;;;;;19.87;100.00;96645.88;4971917;28;101909;-72
2023/08/16 00:50:24;;;;;;;6.27;5.77;;;;;;;19.86;100.00;96646.97;4971620;28;105475;-72
2023/08/16 00:52:52;;;;;;;6.13;5.63;;;;;;;19.85;100.00;96631.88;4987944;28;105740;-72
2023/08/16 00:55:19;;;;;;;5.97;5.50;;;;;;;19.64;100.00;96630.69;4971898;28;102031;-72
2023/08/16 00:57:46;;;;;;;6.10;5.60;;;;;;;19.71;100.00;96620.28;4974761;28;104108;-72
2023/08/16 01:00:14;;;;;;;5.80;5.20;;;;;;;19.74;100.00;96628.59;4989765;28;101801;-72
2023/08/16 01:02:41;;;;;;;5.50;4.90;;;;;;;19.65;100.00;96632.28;4988343;28;104429;-72
2023/08/16 01:05:10;;;;;;;5.53;4.83;;;;;;;19.45;100.00;96622.72;4987452;28;105621;-72
2023/08/16 01:07:38;;;;;;;5.20;4.70;;;;;;;19.51;100.00;96628.81;4988602;28;101962;-71
2023/08/16 01:10:08;;;;;;;9.33;4.50;;;;;;;19.50;100.00;96629.94;4971608;28;105214;-72
2023/08/16 01:12:41;;;;;;;5.70;5.03;;;;;;;19.43;100.00;96624.13;4987341;28;104259;-72
2023/08/16 01:15:17;;;;;;;5.13;4.83;;;;;;;19.31;100.00;96621.13;4971274;28;101896;-72
2023/08/16 01:17:45;;;;;;;5.53;5.13;;;;;;;19.33;100.00;96618.91;4989691;28;102518;-72
2023/08/16 01:20:14;;;;;;;6.30;4.63;;;;;;;19.31;100.00;96618.44;4990825;28;102124;-72
2023/08/16 01:22:54;;;;;;;4.60;4.30;;;;;;;19.44;100.00;96623.81;4990193;28;105664;-73
2023/08/16 01:25:39;;;;;;;6.17;5.33;;;;;;;19.46;100.00;96618.13;4974376;28;104984;-70
2023/08/16 01:28:07;;;;;;;5.63;5.23;;;;;;;19.26;100.00;96613.94;4991234;28;102197;-70
2023/08/16 01:30:35;;;;;;;5.13;4.63;;;;;;;19.37;100.00;96612.66;4975022;28;105425;-70
2023/08/16 01:33:09;;;;;;;4.93;4.53;;;;;;;19.23;100.00;96608.34;4974287;28;105498;-70
2023/08/16 01:35:38;;;;;;;4.43;4.03;;;;;;;19.29;100.00;96607.94;4974769;28;103231;-70
2023/08/16 01:38:08;;;;;;;4.93;4.33;;;;;;;19.28;100.00;96610.94;4991360;28;105398;-70
2023/08/16 01:40:39;;;;;;;4.77;4.47;;;;;;;19.23;100.00;96608.34;4993894;28;105601;-71
2023/08/16 01:43:10;;;;;;;5.70;4.70;;;;;;;19.35;100.00;96611.34;4974509;28;105493;-71
2023/08/16 01:45:37;;;;;;;5.47;5.07;;;;;;;19.40;100.00;96616.66;4990842;28;105489;-71
2023/08/16 01:48:06;;;;;;;5.40;4.10;;;;;;;19.33;100.00;96610.81;4974682;28;102120;-71
2023/08/16 01:50:34;;;;;;;4.70;4.30;;;;;;;19.44;100.00;96610.34;4991250;28;105274;-71
2023/08/16 01:53:01;;;;;;;4.67;4.37;;;;;;;19.39;100.00;96615.84;4973952;28;105659;-70
2023/08/16 01:55:28;;;;;;;5.20;4.70;;;;;;;19.45;100.00;96611.16;4974517;28;102051;-72
2023/08/16 01:57:55;;;;;;;5.27;4.87;;;;;;;19.13;100.00;96603.91;4974601;28;105485;-72
2023/08/16 02:00:23;;;;;;;5.10;4.70;;;;;;;19.19;100.00;96608.09;4973776;28;105766;-71
2023/08/16 02:02:52;;;;;;;4.73;4.33;;;;;;;18.96;100.00;96603.69;4994378;28;101908;-71
2023/08/16 02:05:19;;;;;;;4.10;3.80;;;;;;;18.99;100.00;96610.38;4991413;28;103117;-72
2023/08/16 02:07:46;;;;;;;4.53;4.13;;;;;;;18.86;100.00;96603.88;4974349;28;101934;-71
2023/08/16 02:10:13;;;;;;;4.53;4.23;;;;;;;18.76;100.00;96608.66;4974406;28;105593;-71
2023/08/16 02:12:40;;;;;;;4.20;3.90;;;;;;;18.93;100.00;96603.50;4973750;28;105756;-72
2023/08/16 02:15:08;;;;;;;4.27;3.77;;;;;;;18.91;100.00;96608.41;4990912;28;101960;-72
2023/08/16 02:17:38;;;;;;;5.30;3.90;;;;;;;19.10;100.00;96614.50;4974098;28;105465;-71
2023/08/16 02:20:07;;;;;;;6.37;4.43;;;;;;;19.09;100.00;96616.41;4973706;28;104343;-71
2023/08/16 02:22:35;;;;;;;5.53;4.10;;;;;;;19.11;100.00;96605.31;4992166;28;102055;-71
2023/08/16 02:25:03;;;;;;;4.70;4.30;;;;;;;19.00;100.00;96609.28;4976669;28;105481;-71
2023/08/16 02:27:30;;;;;;;4.63;3.87;;;;;;;18.89;100.00;96602.47;4974034;28;101939;-71
2023/08/16 02:29:57;;;;;;;4.40;4.00;;;;;;;18.92;100.00;96605.38;4973990;28;105926;-71
2023/08/16 02:32:25;;;;;;;4.60;4.20;;;;;;;18.81;100.00;96611.25;4989806;28;105738;-71
2023/08/16 02:34:54;;;;;;;4.50;4.20;;;;;;;18.65;100.00;96607.22;4990642;28;102364;-72
2023/08/16 02:37:21;;;;;;;4.90;4.37;;;;;;;18.85;100.00;96604.19;4973948;28;105721;-72
2023/08/16 02:39:48;;;;;;;5.37;4.20;;;;;;;18.79;100.00;96597.28;4989997;28;105472;-71
2023/08/16 02:42:16;;;;;;;4.73;4.33;;;;;;;18.62;100.00;96600.53;4973594;28;101891;-71
2023/08/16 02:44:43;;;;;;;4.97;4.57;;;;;;;18.40;100.00;96600.38;4973891;28;105420;-71
2023/08/16 02:47:10;;;;;;;4.80;4.30;;;;;;;18.68;100.00;96612.81;4976355;28;106136;-71
2023/08/16 02:49:37;;;;;;;5.07;4.23;;;;;;;18.68;100.00;96614.72;4973321;28;105209;-72
2023/08/16 02:52:06;;;;;;;5.93;4.60;;;;;;;18.57;100.00;96616.78;4989953;28;104330;-72
2023/08/16 02:54:33;;;;;;;4.80;4.40;;;;;;;18.23;100.00;96607.34;4973734;28;102110;-71
2023/08/16 02:57:00;;;;;;;5.17;4.63;;;;;;;18.11;100.00;96598.94;4973351;28;105465;-70
2023/08/16 02:59:27;;;;;;;6.83;4.27;;;;;;;18.26;100.00;96610.25;4972590;28;105911;-70
2023/08/16 03:01:55;;;;;;;4.97;4.50;;;;;;;18.54;100.00;96605.81;4973644;28;101943;-70
2023/08/16 03:04:22;;;;;;;5.03;4.63;;;;;;;18.49;100.00;96606.69;4989815;28;105326;-70
2023/08/16 03:06:49;;;;;;;5.20;4.70;;;;;;;18.71;100.00;96612.25;4989526;28;105543;-70
2023/08/16 03:09:18;;;;;;;5.70;5.27;;;;;;;18.71;100.00;96608.75;4993369;28;101946;-70
2023/08/16 03:11:45;;;;;;;5.00;4.60;;;;;;;18.67;100.00;96613.13;4989273;28;105652;-70
2023/08/16 03:14:12;;;;;;;5.50;5.10;;;;;;;18.62;100.00;96623.97;4973467;28;101860;-70
2023/08/16 03:16:39;;;;;;;5.10;4.70;;;;;;;18.54;100.00;96621.97;4991262;28;102872;-70
2023/08/16 03:19:06;;;;;;;7.27;5.43;;;;;;;18.62;100.00;96634.75;4989100;28;105726;-71
2023/08/16 03:21:34;;;;;;;5.43;4.93;;;;;;;18.56;100.00;96630.53;4989781;28;101974;-72
2023/08/16 03:24:03;;;;;;;6.20;5.20;;;;;;;18.71;100.00;96627.59;4989429;28;105214;-71
2023/08/16 03:26:32;;;;;;;6.00;5.40;;;;;;;18.52;100.00;96624.16;4990532;28;102714;-71
2023/08/16 03:28:59;;;;;;;5.30;4.80;;;;;;;18.64;100.00;96621.81;4976449;28;101980;-71
2023/08/16 03:31:26;;;;;;;6.67;4.90;;;;;;;18.64;100.00;96627.19;4972399;28;105744;-71
2023/08/16 03:33:53;;;;;;;5.70;5.10;;;;;;;18.55;100.00;96634.34;4973038;28;101843;-71
2023/08/16 03:36:20;;;;;;;5.27;4.70;;;;;;;18.30;100.00;96629.31;4989730;28;105377;-71
2023/08/16 03:38:47;;;;;;;5.70;4.73;;;;;;;18.16;100.00;96636.53;4972197;28;105741;-71
2023/08/16 03:41:14;;;;;;;5.30;4.90;;;;;;;17.98;100.00;96635.44;4990716;28;101815;-71
2023/08/16 03:43:43;;;;;;;4.80;4.40;;;;;;;17.93;100.00;96637.41;4990822;28;102673;-71
2023/08/16 03:46:10;;;;;;;4.37;4.07;;;;;;;17.89;100.00;96634.50;4989682;28;101896;-71
2023/08/16 03:48:37;;;;;;;5.30;4.87;;;;;;;18.13;100.00;96642.50;4989319;28;102268;-70
2023/08/16 03:51:05;;;;;;;5.00;4.60;;;;;;;18.31;100.00;96655.16;4975512;28;105374;-72
2023/08/16 03:53:32;;;;;;;6.83;5.53;;;;;;;18.47;100.00;96656.56;4989299;28;102059;-72
2023/08/16 03:56:00;;;;;;;5.27;4.77;;;;;;;18.27;100.00;96662.22;4988938;28;105246;-71
2023/08/16 03:58:27;;;;;;;6.40;4.90;;;;;;;18.10;100.00;96664.63;4971947;28;105613;-71
2023/08/16 04:00:55;;;;;;;5.13;4.73;;;;;;;18.12;100.00;96667.81;4955916;28;102003;-71
2023/08/16 04:03:23;;;;;;;5.67;5.03;;;;;;;18.13;100.00;96667.53;4972518;28;105298;-71
2023/08/16 04:05:50;;;;;;;5.83;5.33;;;;;;;18.33;100.00;96669.97;4990053;28;103177;-71
2023/08/16 04:08:17;;;;;;;6.03;5.53;;;;;;;18.10;100.00;96672.69;4972432;28;101956;-71
2023/08/16 04:10:44;;;;;;;6.63;5.10;;;;;;;18.45;100.00;96666.81;4972025;28;105592;-72
2023/08/16 04:13:11;;;;;;;6.20;5.70;;;;;;;18.47;100.00;96678.91;4992047;28;104416;-70
2023/08/16 04:15:38;;;;;;;5.60;5.20;;;;;;;18.31;100.00;96674.00;4972475;28;105240;-70
2023/08/16 04:18:07;;;;;;;6.70;6.00;;;;;;;18.31;100.00;96668.63;4971670;28;105684;-70
2023/08/16 04:20:34;;;;;;;6.17;5.67;;;;;;;18.22;100.00;96664.97;4972441;28;101982;-71
2023/08/16 04:23:01;;;;;;;6.70;5.53;;;;;;;18.25;100.00;96683.25;4972285;28;105494;-70
2023/08/16 04:25:28;;;;;;;6.30;5.70;;;;;;;18.17;100.00;96678.50;4971239;28;105190;-71
2023/08/16 04:27:55;;;;;;;7.57;6.77;;;;;;;18.31;100.00;96688.25;4972476;28;102430;-71
2023/08/16 04:30:23;;;;;;;7.67;6.13;;;;;;;18.39;100.00;96692.22;4972028;28;105099;-71
2023/08/16 04:32:50;;;;;;;6.83;6.20;;;;;;;18.22;100.00;96690.03;4971724;28;105461;-69
2023/08/16 04:35:19;;;;;;;7.00;6.00;;;;;;;18.13;100.00;96688.25;4992287;28;101923;-70
2023/08/16 04:37:46;;;;;;;5.87;5.33;;;;;;;18.27;100.00;96698.03;4988393;28;105571;-70
2023/08/16 04:40:13;;;;;;;8.93;5.83;;;;;;;18.28;100.00;96696.94;4971910;28;101907;-72
2023/08/16 04:42:40;;;;;;;6.07;5.67;;;;;;;18.06;100.00;96701.28;4972349;28;103758;-73
2023/08/16 04:45:08;;;;;;;5.70;5.30;;;;;;;18.06;100.00;96706.66;4971383;28;105389;-73
2023/08/16 04:47:36;;;;;;;6.17;5.70;;;;;;;18.12;100.00;96705.50;4972478;28;102249;-72
2023/08/16 04:50:06;;;;;;;5.90;5.50;;;;;;;18.02;100.00;96709.13;4989232;28;105016;-69
2023/08/16 04:52:36;;;;;;;5.97;5.53;;;;;;;18.11;100.00;96706.59;4988426;28;105382;-69
2023/08/16 04:55:05;;;;;;;8.17;5.73;;;;;;;18.66;100.00;96717.41;4989109;28;101988;-69
2023/08/16 04:57:33;;;;;;;6.37;5.93;;;;;;;18.48;100.00;96714.72;4992125;28;105325;-70
2023/08/16 05:00:00;;;;;;;7.60;6.40;;;;;;;18.66;100.00;96716.59;4972143;28;102033;-69
2023/08/16 05:02:28;;;;;;;6.53;6.03;;;;;;;18.61;100.00;96714.78;4972566;28;103599;-69
2023/08/16 05:04:55;;;;;;;6.93;6.43;;;;;;;18.62;100.00;96711.00;4988465;28;105607;-69
2023/08/16 05:07:22;;;;;;;6.37;5.87;;;;;;;18.71;100.00;96705.72;4990413;28;102038;-69
2023/08/16 05:09:51;;;;;;;7.20;6.70;;;;;;;18.83;100.00;96703.38;4988797;28;105423;-69
2023/08/16 05:12:18;;;;;;;6.70;6.20;;;;;;;18.84;100.00;96710.34;4988327;28;105511;-69
2023/08/16 05:14:45;;;;;;;7.20;6.60;;;;;;;18.93;100.00;96711.28;4972249;28;101823;-69
2023/08/16 05:17:12;;;;;;;7.23;6.73;;;;;;;18.81;100.00;96713.66;4989104;28;104215;-68
2023/08/16 05:19:39;;;;;;;7.40;6.90;;;;;;;18.91;100.00;96718.88;4975067;28;105710;-68
2023/08/16 05:22:07;;;;;;;6.30;5.80;;;;;;;18.84;100.00;96710.34;4972394;28;105258;-68
2023/08/16 05:24:34;;;;;;;6.23;5.73;;;;;;;19.01;100.00;96714.13;4989281;28;103142;-68
2023/08/16 05:27:03;;;;;;;6.00;5.60;;;;;;;19.07;100.00;96723.72;4988673;28;101922;-68
2023/08/16 05:29:30;;;;;;;6.43;5.90;;;;;;;19.06;100.00;96718.63;4988600;28;105314;-68
2023/08/16 05:31:58;;;;;;;5.63;5.23;;;;;;;18.99;100.00;96721.72;4989511;28;101919;-69
2023/08/16 05:34:25;;;;;;;5.70;5.30;;;;;;;19.05;100.00;96725.91;4988678;28;101861;-69
2023/08/16 05:36:54;;;;;;;6.00;5.60;;;;;;;19.06;100.00;96732.91;4988553;28;105452;-69
2023/08/16 05:39:22;;;;;;;6.70;6.20;;;;;;;19.04;100.00;96737.00;4991491;28;105517;-69
2023/08/16 05:41:49;;;;;;;6.43;6.00;;;;;;;18.97;100.00;96734.66;4988625;28;105648;-69
2023/08/16 05:44:18;;;;;;;6.40;5.87;;;;;;;18.97;100.00;96740.06;4989068;28;102786;-69
2023/08/16 05:46:45;;;;;;;6.00;5.40;;;;;;;18.97;100.00;96740.06;4972108;28;102039;-69
2023/08/16 05:49:12;;;;;;;5.80;5.40;;;;;;;18.88;100.00;96749.91;4988607;28;104406;-69
2023/08/16 05:51:39;;;;;;;6.00;5.60;;;;;;;19.00;100.00;96744.06;4987758;28;105477;-69
2023/08/16 05:54:06;;;;;;;5.97;5.53;;;;;;;19.06;100.00;96743.69;4988511;28;101905;-69
2023/08/16 05:56:33;;;;;;;6.03;5.53;;;;;;;19.11;100.00;96750.88;4989751;28;102405;-69
2023/08/16 05:59:00;;;;;;;5.90;5.50;;;;;;;19.36;100.00;96745.09;4987525;28;105722;-69
2023/08/16 06:01:29;;;;;;;5.93;5.50;;;;;;;19.70;100.00;96743.66;4975809;28;101978;-69
2023/08/16 06:03:56;;;;;;;5.70;5.30;;;;;;;19.90;100.00;96742.44;4987478;28;105549;-69
2023/08/16 06:06:23;;;;;;;6.67;6.10;;;;;;;19.82;100.00;96735.03;4971606;28;102057;-69
2023/08/16 06:08:50;;;;;;;6.83;6.30;;;;;;;19.83;100.00;96734.75;4989847;28;105533;-69
2023/08/16 06:11:18;;;;;;;6.87;6.33;;;;;;;19.96;100.00;96747.44;4963024;28;105441;-70
2023/08/16 06:13:51;;;;;;;6.93;6.43;;;;;;;19.96;100.00;96741.25;4971961;28;102186;-69
2023/08/16 06:16:18;;;;;;;6.90;6.40;;;;;;;20.04;100.00;96751.31;4974294;28;105297;-69
2023/08/16 06:18:46;;;;;;;6.80;6.30;;;;;;;20.21;100.00;96749.66;4990705;28;105353;-71
2023/08/16 06:21:13;;;;;;;7.87;6.00;;;;;;;20.05;100.00;96747.53;4973560;28;101982;-70
2023/08/16 06:23:42;;;;;;;6.63;6.13;;;;;;;19.93;100.00;96749.94;4976863;28;105736;-69
2023/08/16 06:26:10;;;;;;;6.30;5.90;;;;;;;20.07;100.00;96748.06;4974839;28;101993;-70
2023/08/16 06:28:37;;;;;;;6.73;6.23;;;;;;;19.89;100.00;96740.84;4989800;28;105537;-70
2023/08/16 06:31:04;;;;;;;6.57;6.07;;;;;;;19.91;100.00;96747.56;4964035;28;105538;-70
2023/08/16 06:33:32;;;;;;;7.03;6.43;;;;;;;19.92;100.00;96742.94;4974076;28;102222;-69
2023/08/16 06:36:01;;;;;;;6.60;6.10;;;;;;;19.91;100.00;96741.34;4974804;28;105359;-69
2023/08/16 06:38:28;;;;;;;6.77;6.23;;;;;;;19.79;100.00;96741.03;4972594;28;105556;-70
2023/08/16 06:40:55;;;;;;;6.67;6.17;;;;;;;19.84;100.00;96749.03;4991976;28;101898;-70
2023/08/16 06:43:23;;;;;;;6.40;6.00;;;;;;;19.87;100.00;96751.13;4972788;28;105129;-70
2023/08/16 06:45:50;;;;;;;6.23;5.73;;;;;;;20.05;100.00;96750.25;4960986;28;105816;-70
2023/08/16 06:48:17;;;;;;;7.50;6.80;;;;;;;20.10;100.00;96737.47;4990496;28;105457;-70
2023/08/16 06:50:45;;;;;;;6.70;6.20;;;;;;;20.53;100.00;96751.38;4973180;28;105670;-69
2023/08/16 06:53:14;;;;;;;7.43;6.83;;;;;;;20.80;100.00;96737.78;4973927;28;102250;-69
2023/08/16 06:55:41;;;;;;;7.50;6.90;;;;;;;20.74;100.00;96739.00;4973594;28;105460;-70
2023/08/16 06:58:08;;;;;;;7.10;6.40;;;;;;;20.92;100.00;96728.06;4973670;28;104541;-70
2023/08/16 07:00:36;;;;;;;6.23;5.73;;;;;;;21.19;100.00;96735.25;4973571;28;101966;-70
2023/08/16 07:03:04;;;;;;;5.30;4.90;;;;;;;20.89;100.00;96728.69;4973776;28;104606;-70
2023/08/16 07:05:32;;;;;;;5.30;4.80;;;;;;;21.25;100.00;96725.91;4973432;28;103139;-70
2023/08/16 07:07:59;;;;;;;4.60;4.30;;;;;;;21.46;100.00;96726.94;4977086;28;101946;-70
2023/08/16 07:10:27;;;;;;;4.77;4.37;;;;;;;21.63;100.00;96711.59;4975735;28;105647;-71
2023/08/16 07:12:55;;;;;;;4.57;4.20;;;;;;;21.49;100.00;96712.78;4973941;28;101831;-70
2023/08/16 07:15:22;;;;;;;4.10;3.80;;;;;;;21.66;100.00;96712.88;4990330;28;105343;-70
2023/08/16 07:17:49;;;;;;;4.13;3.70;;;;;;;21.49;100.00;96712.78;4971123;28;105576;-70
2023/08/16 07:20:16;;;;;;;4.33;3.93;;;;;;;21.73;100.00;96708.63;4959395;28;102082;-69
2023/08/16 07:22:44;;;;;;;4.10;3.73;;;;;;;21.61;100.00;96708.41;4977772;28;102445;-75
2023/08/16 07:25:12;;;;;;;4.13;3.83;;;;;;;21.84;100.00;96703.72;4969877;28;105541;-70
2023/08/16 07:27:40;;;;;;;4.77;3.33;;;;;;;21.78;100.00;96713.09;4962249;28;103743;-70
2023/08/16 07:30:08;;;;;;;5.47;4.00;;;;;;;22.03;100.00;96712.41;4992882;28;105741;-70
2023/08/16 07:32:35;;;;;;;3.90;3.60;;;;;;;22.29;100.00;96718.69;4973736;28;101827;-70
2023/08/16 07:35:03;;;;;;;4.07;3.77;;;;;;;22.49;100.00;96704.53;4973204;28;105455;-70
2023/08/16 07:37:31;;;;;;;4.13;3.50;;;;;;;22.63;100.00;96707.88;4973156;28;105708;-70
2023/08/16 07:39:59;;;;;;;5.23;3.60;;;;;;;22.84;100.00;96703.44;4973081;28;102087;-70
2023/08/16 07:42:26;;;;;;;4.30;4.00;;;;;;;22.90;100.00;96711.09;4973727;28;105615;-70
2023/08/16 07:44:57;;;;;;;3.70;3.40;;;;;;;23.03;100.00;96703.88;4972968;28;104025;-71
2023/08/16 07:47:24;;;;;;;4.63;3.63;;;;;;;23.06;100.00;96706.72;4991597;28;102169;-71
2023/08/16 07:49:51;;;;;;;4.50;2.93;;;;;;;23.27;100.00;96707.69;4993972;28;101783;-71
2023/08/16 07:52:19;;;;;;;3.27;3.07;;;;;;;23.40;100.00;96712.13;4973182;28;101910;-70
2023/08/16 07:54:46;;;;;;;3.57;3.27;;;;;;;23.34;100.00;96713.44;4973074;28;105618;-70
2023/08/16 07:57:13;;;;;;;3.47;3.17;;;;;;;23.54;100.00;96711.94;4972067;28;105555;-75
2023/08/16 07:59:41;;;;;;;4.57;3.10;;;;;;;23.66;100.00;96714.75;4973057;28;102402;-70
2023/08/16 08:02:09;;;;;;;3.23;2.93;;;;;;;23.66;100.00;96720.19;4972981;28;104130;-70
2023/08/16 08:04:37;;;;;;;3.03;2.83;;;;;;;23.85;100.00;96715.97;4989035;28;105498;-71
2023/08/16 08:07:04;;;;;;;3.57;2.93;;;;;;;23.92;100.00;96712.78;4971339;28;101984;-70
2023/08/16 08:09:31;;;;;;;3.53;3.10;;;;;;;24.10;100.00;96716.97;4973090;28;105365;-70
2023/08/16 08:11:59;;;;;;;2.67;2.47;;;;;;;23.97;100.00;96705.22;4976035;28;105487;-70
2023/08/16 08:14:26;;;;;;;2.83;2.63;;;;;;;23.77;100.00;96707.84;4991114;28;102869;-70
2023/08/16 08:16:53;;;;;;;3.07;2.87;;;;;;;23.81;100.00;96709.56;4972085;28;105921;-71
2023/08/16 08:19:22;;;;;;;2.80;2.60;;;;;;;24.04;100.00;96718.28;4989840;28;101962;-71
2023/08/16 08:21:49;;;;;;;3.00;2.80;;;;;;;24.27;100.00;96716.88;4965866;28;105336;-71
2023/08/16 08:24:16;;;;;;;3.57;3.27;;;;;;;24.39;100.00;96717.75;4971234;28;104660;-70
2023/08/16 08:26:44;;;;;;;4.40;3.73;;;;;;;24.58;100.00;96714.63;4964991;28;102130;-71
2023/08/16 08:29:11;;;;;;;4.50;3.70;;;;;;;24.67;100.00;96718.06;4963813;28;104110;-71
2023/08/16 08:31:39;;;;;;;6.03;3.57;;;;;;;24.93;100.00;96718.66;4971029;28;104415;-71
2023/08/16 08:34:06;;;;;;;3.90;3.60;;;;;;;24.90;100.00;96722.06;4994342;28;101924;-70
2023/08/16 08:36:34;;;;;;;3.73;3.43;;;;;;;24.72;100.00;96721.41;4972213;28;105512;-70
2023/08/16 08:39:02;;;;;;;4.10;3.40;;;;;;;24.84;100.00;96729.59;4972600;28;103499;-71
2023/08/16 08:41:32;;;;;;;4.40;3.47;;;;;;;24.99;100.00;96726.28;4989587;28;102438;-71
2023/08/16 08:44:00;;;;;;;3.60;3.30;;;;;;;25.02;100.00;96724.81;4964859;28;105877;-71
2023/08/16 08:46:29;;;;;;;3.70;3.40;;;;;;;24.91;100.00;96718.19;4953238;28;101939;-71
2023/08/16 08:48:59;;;;;;;3.67;3.37;;;;;;;24.87;100.00;96722.72;4983808;28;105348;-71
2023/08/16 08:51:29;;;;;;;3.20;2.90;;;;;;;24.69;100.00;96727.47;4988393;28;105561;-71
2023/08/16 08:53:58;;;;;;;3.53;3.23;;;;;;;24.50;100.00;96723.59;4989010;28;101979;-70
2023/08/16 08:56:27;;;;;;;3.20;2.97;;;;;;;24.33;100.00;96737.31;4989939;28;105333;-70
2023/08/16 08:58:56;;;;;;;3.30;3.10;;;;;;;24.25;100.00;96724.56;4972095;28;102239;-70
2023/08/16 09:01:25;;;;;;;3.53;2.97;;;;;;;24.16;100.00;96729.25;4983673;28;105433;-71
2023/08/16 09:03:54;;;;;;;3.40;3.10;;;;;;;24.06;100.00;96726.91;4988017;28;104909;-71
2023/08/16 09:06:21;;;;;;;3.07;2.87;;;;;;;24.18;100.00;96729.72;4972519;28;101948;-71
2023/08/16 09:08:49;;;;;;;3.23;2.93;;;;;;;24.16;100.00;96719.19;4972382;28;105524;-70
2023/08/16 09:11:18;;;;;;;3.63;3.30;;;;;;;24.40;100.00;96721.25;4971603;28;105806;-70
2023/08/16 09:13:46;;;;;;;6.07;2.87;;;;;;;24.48;100.00;96717.69;4979164;28;102191;-71
2023/08/16 09:16:13;;;;;;;3.67;2.50;;;;;;;24.79;100.00;96718.16;4963920;28;105656;-71
2023/08/16 09:18:47;;;;;;;3.13;2.83;;;;;;;25.17;100.00;96716.03;4955177;28;105770;-68
2023/08/16 09:21:16;;;;;;;2.27;2.13;;;;;;;25.42;100.00;96712.28;4952920;28;105280;-70
2023/08/16 09:23:43;;;;;;;2.23;2.13;;;;;;;25.46;100.00;96702.31;4978795;28;105890;-69
2023/08/16 09:26:15;;;;;;;2.50;2.30;;;;;;;25.64;100.00;96706.41;4983640;28;102053;-72
2023/08/16 09:28:43;;;;;;;2.47;2.27;;;;;;;25.83;100.00;96706.69;4972252;28;104962;-69
2023/08/16 09:31:10;;;;;;;2.33;2.13;;;;;;;25.88;100.00;96709.19;4971349;28;105925;-70
2023/08/16 09:33:38;;;;;;;3.07;2.10;;;;;;;26.15;100.00;96701.13;4988348;28;101886;-70
2023/08/16 09:36:06;;;;;;;2.00;1.90;;;;;;;26.22;100.00;96704.06;4989812;28;102605;-70
2023/08/16 09:38:41;;;;;;;2.10;2.00;;;;;;;25.87;100.00;96702.13;4988783;28;102888;-70
2023/08/16 09:41:14;;;;;;;2.43;2.13;;;;;;;26.11;100.00;96697.50;4993630;28;101874;-70
2023/08/16 09:43:41;;;;;;;2.43;1.97;;;;;;;26.61;100.00;96694.41;4971729;28;105830;-70
2023/08/16 09:46:11;;;;;;;1.80;1.70;;;;;;;26.84;100.00;96693.53;4975265;28;102166;-70
2023/08/16 09:48:40;;;;;;;2.03;1.93;;;;;;;26.82;100.00;96697.75;4984005;28;105185;-70
2023/08/16 09:51:07;;;;;;;2.80;2.23;;;;;;;27.08;100.00;96692.66;4955372;28;104383;-70
2023/08/16 09:53:35;;;;;;;1.90;1.80;;;;;;;27.46;100.00;96685.50;4971908;28;101851;-70
2023/08/16 09:56:02;;;;;;;2.27;2.00;;;;;;;27.68;100.00;96684.13;4975093;28;105684;-70
2023/08/16 09:58:31;;;;;;;2.40;2.20;;;;;;;27.72;100.00;96676.81;4991149;28;104368;-70
2023/08/16 10:01:02;;;;;;;2.43;2.23;;;;;;;27.72;100.00;96679.53;4978598;28;102070;-69
2023/08/16 10:03:31;;;;;;;2.30;2.20;;;;;;;27.71;100.00;96667.03;4974207;28;105969;-69
2023/08/16 10:06:00;;;;;;;1.90;1.80;;;;;;;27.58;100.00;96669.03;4974942;28;103036;-70
2023/08/16 10:08:29;;;;;;;1.70;1.60;;;;;;;26.98;100.00;96665.84;4983872;28;105624;-70
2023/08/16 10:10:57;;;;;;;1.80;1.70;;;;;;;26.66;100.00;96666.88;4973927;28;105751;-70
2023/08/16 10:13:24;;;;;;;2.10;2.00;;;;;;;26.65;100.00;96668.78;4968975;28;102181;-71
2023/08/16 10:15:54;;;;;;;2.27;2.17;;;;;;;26.95;100.00;96671.97;4955659;28;105800;-70
2023/08/16 10:18:24;;;;;;;2.50;2.07;;;;;;;27.08;100.00;96666.13;4972083;28;105810;-70
2023/08/16 10:20:59;;;;;;;2.63;1.77;;;;;;;27.24;100.00;96664.25;4955409;28;101867;-70
2023/08/16 10:23:29;;;;;;;1.80;1.70;;;;;;;27.73;100.00;96662.78;4971785;28;105284;-70
2023/08/16 10:25:59;;;;;;;2.60;2.10;;;;;;;27.98;100.00;96664.22;4991997;28;101869;-70
2023/08/16 10:28:27;;;;;;;1.80;1.70;;;;;;;28.42;100.00;96665.66;4974006;28;105367;-70
2023/08/16 10:30:58;;;;;;;1.97;1.87;;;;;;;28.47;100.00;96665.38;4990622;28;105409;-70
2023/08/16 10:33:33;;;;;;;2.00;1.80;;;;;;;28.62;100.00;96661.00;4974474;28;101950;-68
2023/08/16 10:36:02;;;;;;;2.25;1.70;;;;;;;28.83;100.00;96664.19;4974803;28;104294;-68
2023/08/16 10:38:36;;;;;;;1.80;1.70;;;;;;;28.93;100.00;96656.16;4990318;28;105916;-68
2023/08/16 10:41:04;;;;;;;1.67;1.50;;;;;;;29.24;100.00;96657.97;4974740;28;101864;-68
2023/08/16 10:43:32;;;;;;;1.42;1.30;;;;;;;29.01;100.00;96654.41;4980120;28;105118;-68
2023/08/16 10:45:59;;;;;;;1.52;1.42;;;;;;;29.21;100.00;96648.53;4976926;28;106070;-68
2023/08/16 10:48:33;;;;;;;1.58;1.48;;;;;;;29.31;100.00;96645.19;4974383;28;104911;-68
2023/08/16 10:51:04;;;;;;;1.70;1.60;;;;;;;28.86;100.00;96647.81;4973986;28;105706;-70
2023/08/16 10:53:31;;;;;;;1.77;1.38;;;;;;;28.72;100.00;96652.22;4992117;28;101899;-70
2023/08/16 10:55:58;;;;;;;1.52;1.40;;;;;;;28.71;100.00;96640.47;4972649;28;105558;-69
2023/08/16 10:58:28;;;;;;;1.15;1.15;;;;;;;29.33;100.00;96634.69;4973960;28;105379;-69
2023/08/16 11:00:58;;;;;;;1.23;1.15;;;;;;;28.98;100.00;96646.94;4973617;28;101917;-70
2023/08/16 11:03:32;;;;;;;1.83;1.17;;;;;;;29.11;100.00;96638.19;4973873;28;104539;-71
2023/08/16 11:06:07;;;;;;;1.55;1.30;;;;;;;28.54;100.00;96638.16;4973264;28;105105;-70
2023/08/16 11:08:34;;;;;;;1.20;1.20;;;;;;;28.78;100.00;96628.88;4977987;28;101872;-70
2023/08/16 11:11:02;;;;;;;1.17;1.17;;;;;;;29.22;100.00;96635.63;4973369;28;105809;-70
2023/08/16 11:13:30;;;;;;;1.13;1.13;;;;;;;29.42;100.00;96626.22;4974030;28;101998;-69
2023/08/16 11:15:57;;;;;;;1.00;1.00;;;;;;;29.72;100.00;96629.88;4973102;28;105429;-69
2023/08/16 11:18:28;;;;;;;1.05;1.05;;;;;;;29.94;100.00;96616.16;4953991;28;106007;-69
2023/08/16 11:20:59;;;;;;;1.33;1.20;;;;;;;30.06;100.00;96621.41;4954593;28;102163;-69